Time;durP1;ratioP1;P1;durP2;ratioP2;P2;SDS_P1;SDS_P2;PMS_P1;PMS_P2;Temp;Humidity;BMP_temperature;BMP_pressure;BME280_temperature;BME280_humidity;BME280_pressure;Samples;Min_cycle;Max_cycle;Signal;HPM_P1;HPM_P2
2022/07/14 00:01:40;;;;;;;0.00;0.00;;;16.60;99.90;;;;;;5073541;28;20052;-69
2022/07/14 00:04:06;;;;;;;0.00;0.00;;;16.50;99.90;;;;;;5090221;28;20048;-68
2022/07/14 00:06:33;;;;;;;0.00;0.00;;;16.60;99.90;;;;;;5086193;28;20041;-69
2022/07/14 00:08:59;;;;;;;0.00;0.00;;;16.50;99.90;;;;;;5052098;28;20053;-68
2022/07/14 00:11:25;;;;;;;0.00;0.00;;;16.50;99.90;;;;;;5051396;28;20041;-69
2022/07/14 00:13:51;;;;;;;0.10;0.10;;;16.50;99.90;;;;;;5065323;28;20048;-69
2022/07/14 00:16:16;;;;;;;0.00;0.00;;;16.50;99.90;;;;;;5082870;28;20431;-68
2022/07/14 00:18:45;;;;;;;0.22;0.22;;;16.40;99.90;;;;;;5053292;28;20048;-69
2022/07/14 00:21:15;;;;;;;0.00;0.00;;;16.40;99.90;;;;;;5071072;28;20131;-69
2022/07/14 00:23:42;;;;;;;0.32;0.13;;;16.30;99.90;;;;;;5072438;28;20111;-68
2022/07/14 00:26:08;;;;;;;0.00;0.00;;;16.30;99.90;;;;;;5072413;28;20480;-68
2022/07/14 00:28:34;;;;;;;0.08;0.08;;;16.40;99.90;;;;;;5090285;28;20139;-68
2022/07/14 00:31:03;;;;;;;0.03;0.03;;;16.40;99.90;;;;;;5075718;28;20475;-68
2022/07/14 00:33:33;;;;;;;0.05;0.05;;;16.30;99.90;;;;;;5050278;28;20049;-69
2022/07/14 00:35:58;;;;;;;0.00;0.00;;;16.40;99.90;;;;;;5066033;28;20043;-68
2022/07/14 00:38:24;;;;;;;0.00;0.00;;;16.30;99.90;;;;;;5078903;28;20774;-68
2022/07/14 00:40:50;;;;;;;0.22;0.22;;;16.20;99.90;;;;;;5082223;28;20571;-68
2022/07/14 00:43:16;;;;;;;2.10;0.73;;;16.20;99.90;;;;;;5081950;28;20124;-68
2022/07/14 00:45:42;;;;;;;0.05;0.05;;;16.20;99.90;;;;;;5091335;28;20039;-69
2022/07/14 00:48:07;;;;;;;0.22;0.17;;;16.10;99.90;;;;;;5080795;28;20047;-68
2022/07/14 00:50:33;;;;;;;0.38;0.38;;;16.00;99.90;;;;;;5090909;28;20075;-68
2022/07/14 00:53:05;;;;;;;0.10;0.10;;;16.00;99.90;;;;;;5056605;28;20045;-69
2022/07/14 00:55:30;;;;;;;0.00;0.00;;;16.00;99.90;;;;;;5069807;28;20064;-68
2022/07/14 00:57:56;;;;;;;0.10;0.10;;;16.00;99.90;;;;;;5081442;28;20040;-67
2022/07/14 01:00:22;;;;;;;0.22;0.22;;;16.00;99.90;;;;;;5060894;28;20048;-67
2022/07/14 01:02:48;;;;;;;0.10;0.10;;;15.90;99.90;;;;;;5063719;28;20059;-68
2022/07/14 01:05:14;;;;;;;0.32;0.32;;;15.80;99.90;;;;;;5089802;28;20051;-67
2022/07/14 01:07:40;;;;;;;0.00;0.00;;;15.80;99.90;;;;;;5070887;28;20052;-68
2022/07/14 01:10:06;;;;;;;0.00;0.00;;;15.70;99.90;;;;;;5088518;28;20044;-68
2022/07/14 01:12:32;;;;;;;0.10;0.10;;;15.70;99.90;;;;;;5086700;28;20614;-68
2022/07/14 01:14:58;;;;;;;0.10;0.10;;;15.70;99.90;;;;;;5071141;28;20105;-68
2022/07/14 01:17:24;;;;;;;0.30;0.10;;;15.60;99.90;;;;;;5071941;28;20040;-68
2022/07/14 01:19:49;;;;;;;0.00;0.00;;;15.50;99.90;;;;;;5086003;28;20116;-68
2022/07/14 01:22:15;;;;;;;0.00;0.00;;;15.40;99.90;;;;;;5080561;28;20043;-68
2022/07/14 01:24:41;;;;;;;0.10;0.10;;;15.40;99.90;;;;;;5068950;28;20079;-68
2022/07/14 01:27:06;;;;;;;0.10;0.10;;;15.40;99.90;;;;;;5077642;28;20032;-68
2022/07/14 01:29:32;;;;;;;0.00;0.00;;;15.40;99.90;;;;;;5052094;28;20052;-68
2022/07/14 01:31:58;;;;;;;0.05;0.05;;;15.40;99.90;;;;;;5069189;28;20127;-68
2022/07/14 01:34:24;;;;;;;0.20;0.20;;;15.30;99.90;;;;;;5069726;28;20040;-68
2022/07/14 01:36:52;;;;;;;0.10;0.10;;;15.20;99.90;;;;;;5069583;28;20468;-68
2022/07/14 01:39:18;;;;;;;0.00;0.00;;;15.20;99.90;;;;;;5076628;28;20134;-68
2022/07/14 01:41:43;;;;;;;0.00;0.00;;;15.10;99.90;;;;;;5083523;28;20515;-68
2022/07/14 01:44:10;;;;;;;0.00;0.00;;;15.10;99.90;;;;;;5067943;28;20037;-69
2022/07/14 01:46:37;;;;;;;0.00;0.00;;;15.10;99.90;;;;;;5087896;28;20050;-68
2022/07/14 01:49:03;;;;;;;0.00;0.00;;;15.10;99.90;;;;;;5070876;28;20047;-68
2022/07/14 01:51:29;;;;;;;0.10;0.10;;;15.10;99.90;;;;;;5087014;28;20495;-68
2022/07/14 01:53:55;;;;;;;0.10;0.10;;;15.00;99.90;;;;;;5034607;28;20067;-68
2022/07/14 01:56:22;;;;;;;0.20;0.20;;;15.10;99.90;;;;;;5083020;28;20390;-68
2022/07/14 01:58:47;;;;;;;0.22;0.22;;;15.10;99.90;;;;;;5070884;28;20132;-68
2022/07/14 02:04:00;;;;;;;0.10;0.10;;;15.00;99.90;;;;;;5088626;28;20077;-68
2022/07/14 02:06:25;;;;;;;0.10;0.10;;;15.00;99.90;;;;;;5089761;28;20150;-68
2022/07/14 02:08:51;;;;;;;0.10;0.10;;;14.80;99.90;;;;;;5075764;28;20115;-68
2022/07/14 02:14:03;;;;;;;0.10;0.10;;;14.80;99.90;;;;;;5087435;28;20613;-68
2022/07/14 02:16:29;;;;;;;0.10;0.10;;;14.70;99.90;;;;;;5078336;28;20112;-68
2022/07/14 02:18:55;;;;;;;2.30;0.90;;;14.70;99.90;;;;;;5083676;28;20044;-68
2022/07/14 02:21:20;;;;;;;0.15;0.15;;;14.60;99.90;;;;;;5085601;28;20089;-69
2022/07/14 02:23:46;;;;;;;0.45;0.40;;;14.60;99.90;;;;;;5069062;28;20403;-68
2022/07/14 02:26:12;;;;;;;0.00;0.00;;;14.60;99.90;;;;;;5080760;28;20040;-68
2022/07/14 02:28:40;;;;;;;0.38;0.38;;;14.60;99.90;;;;;;5079322;28;20509;-68
2022/07/14 02:31:06;;;;;;;0.35;0.25;;;14.60;99.90;;;;;;5088987;28;20040;-68
2022/07/14 02:33:32;;;;;;;0.00;0.00;;;14.60;99.90;;;;;;5074012;28;20730;-68
2022/07/14 02:35:57;;;;;;;0.15;0.15;;;14.60;99.90;;;;;;5044893;28;20044;-68
2022/07/14 02:38:23;;;;;;;0.10;0.10;;;14.60;99.90;;;;;;5068062;28;20045;-68
2022/07/14 02:40:48;;;;;;;0.00;0.00;;;14.50;99.90;;;;;;5067929;28;20118;-68
2022/07/14 02:43:14;;;;;;;0.20;0.20;;;14.50;99.90;;;;;;5032172;28;20044;-68
2022/07/14 02:45:40;;;;;;;0.35;0.35;;;14.50;99.90;;;;;;5066685;28;20052;-68
2022/07/14 02:48:06;;;;;;;1.98;1.45;;;14.40;99.90;;;;;;5089197;28;20051;-68
2022/07/14 02:50:32;;;;;;;0.30;0.30;;;14.40;99.90;;;;;;5071192;28;20062;-68
2022/07/14 02:52:57;;;;;;;0.00;0.00;;;14.40;99.90;;;;;;5051894;28;20049;-68
2022/07/14 02:55:23;;;;;;;1.95;1.13;;;14.40;99.90;;;;;;5067687;28;20041;-68
2022/07/14 02:57:48;;;;;;;0.38;0.38;;;14.40;99.90;;;;;;5051225;28;20182;-68
2022/07/14 03:00:14;;;;;;;1.55;1.08;;;14.40;99.90;;;;;;5069158;28;20043;-68
2022/07/14 03:02:40;;;;;;;0.10;0.10;;;14.40;99.90;;;;;;5070691;28;20071;-68
2022/07/14 03:05:06;;;;;;;0.10;0.10;;;14.40;99.90;;;;;;5088962;28;20056;-68
2022/07/14 03:07:32;;;;;;;0.28;0.28;;;14.40;99.90;;;;;;5070343;28;20049;-68
2022/07/14 03:09:58;;;;;;;0.10;0.10;;;14.40;99.90;;;;;;5087693;28;20540;-68
2022/07/14 03:12:23;;;;;;;0.10;0.10;;;14.40;99.90;;;;;;5070837;28;20067;-68
2022/07/14 03:14:49;;;;;;;0.00;0.00;;;14.40;99.90;;;;;;5076516;28;20044;-68
2022/07/14 03:17:16;;;;;;;0.08;0.08;;;14.30;99.90;;;;;;5063306;28;20048;-68
2022/07/14 03:19:42;;;;;;;1.20;0.55;;;14.30;99.90;;;;;;5069520;28;20052;-68
2022/07/14 03:22:07;;;;;;;0.05;0.05;;;14.30;99.90;;;;;;5076840;28;20044;-68
2022/07/14 03:24:33;;;;;;;0.00;0.00;;;14.20;99.90;;;;;;5088071;28;20052;-68
2022/07/14 03:26:59;;;;;;;0.10;0.10;;;14.20;99.90;;;;;;5087003;28;20052;-68
2022/07/14 03:29:25;;;;;;;0.30;0.30;;;14.20;99.90;;;;;;5033075;28;20047;-68
2022/07/14 03:31:51;;;;;;;0.10;0.10;;;14.10;99.90;;;;;;5070375;28;20063;-68
2022/07/14 03:34:16;;;;;;;0.52;0.52;;;14.20;99.90;;;;;;5088415;28;20051;-68
2022/07/14 03:36:42;;;;;;;0.10;0.10;;;14.20;99.90;;;;;;5086489;28;20061;-69
2022/07/14 03:39:07;;;;;;;0.10;0.10;;;14.20;99.90;;;;;;5085856;28;20044;-68
2022/07/14 03:41:33;;;;;;;0.10;0.10;;;14.20;99.90;;;;;;5083025;28;20098;-68
2022/07/14 03:43:58;;;;;;;0.00;0.00;;;14.30;99.90;;;;;;5066553;28;20048;-69
2022/07/14 03:46:24;;;;;;;0.10;0.10;;;14.20;99.90;;;;;;5085370;28;20411;-68
2022/07/14 03:48:51;;;;;;;0.85;0.75;;;14.30;99.90;;;;;;5087568;28;20040;-68
2022/07/14 03:51:16;;;;;;;0.17;0.17;;;14.20;99.90;;;;;;5068266;28;20041;-68
2022/07/14 03:53:42;;;;;;;0.10;0.10;;;14.20;99.90;;;;;;5073644;28;20520;-68
2022/07/14 03:56:08;;;;;;;0.22;0.22;;;14.20;99.90;;;;;;5086077;28;20047;-68
2022/07/14 03:58:33;;;;;;;0.00;0.00;;;14.30;99.90;;;;;;5074032;28;20399;-68
2022/07/14 04:00:59;;;;;;;0.10;0.10;;;14.20;99.90;;;;;;5076177;28;20094;-68
2022/07/14 04:03:25;;;;;;;0.10;0.10;;;14.40;99.90;;;;;;5086988;28;20067;-68
2022/07/14 04:05:50;;;;;;;0.10;0.10;;;14.40;99.90;;;;;;5085145;28;20059;-68
2022/07/14 04:08:16;;;;;;;0.00;0.00;;;14.40;99.90;;;;;;5080727;28;20062;-68
2022/07/14 04:10:41;;;;;;;0.90;0.75;;;14.30;99.90;;;;;;5087148;28;20368;-69
2022/07/14 04:13:07;;;;;;;0.32;0.32;;;14.30;99.90;;;;;;5074391;28;20094;-68
2022/07/14 04:15:32;;;;;;;0.00;0.00;;;14.30;99.90;;;;;;5067101;28;20041;-69
2022/07/14 04:17:58;;;;;;;0.30;0.30;;;14.40;99.90;;;;;;5067125;28;20033;-69
2022/07/14 04:20:24;;;;;;;10.32;0.55;;;14.30;99.90;;;;;;5083991;28;20044;-67
2022/07/14 04:22:51;;;;;;;0.00;0.00;;;14.20;99.90;;;;;;5067154;28;20041;-69
2022/07/14 04:25:17;;;;;;;0.28;0.28;;;14.20;99.90;;;;;;5066971;28;20044;-69
2022/07/14 04:27:42;;;;;;;0.40;0.40;;;14.20;99.90;;;;;;5071318;28;20044;-68
2022/07/14 04:30:12;;;;;;;0.30;0.30;;;14.30;99.90;;;;;;5087416;28;20052;-68
2022/07/14 04:32:37;;;;;;;0.22;0.15;;;14.20;99.90;;;;;;5085880;28;20046;-68
2022/07/14 04:35:04;;;;;;;4.75;0.70;;;14.30;99.90;;;;;;5064757;28;20276;-69
2022/07/14 04:37:30;;;;;;;0.45;0.45;;;14.30;99.90;;;;;;5087972;28;20630;-69
2022/07/14 04:39:56;;;;;;;0.17;0.17;;;14.30;99.90;;;;;;5090894;28;20098;-69
2022/07/14 04:42:22;;;;;;;0.00;0.00;;;14.30;99.90;;;;;;5078879;28;20472;-68
2022/07/14 04:44:48;;;;;;;0.10;0.10;;;14.40;99.90;;;;;;5049499;28;20055;-69
2022/07/14 04:47:14;;;;;;;0.10;0.10;;;14.40;99.90;;;;;;5090442;28;20043;-68
2022/07/14 04:52:24;;;;;;;0.47;0.47;;;14.50;99.90;;;;;;5072211;28;20044;-68
2022/07/14 04:54:50;;;;;;;4.10;1.88;;;14.60;99.90;;;;;;5052416;28;20044;-68
2022/07/14 04:57:16;;;;;;;0.10;0.10;;;14.60;99.90;;;;;;5050541;28;20087;-68
2022/07/14 04:59:41;;;;;;;0.08;0.08;;;14.70;99.90;;;;;;5073802;28;20091;-68
2022/07/14 05:02:07;;;;;;;0.00;0.00;;;14.70;99.90;;;;;;5090789;28;20202;-68
2022/07/14 05:04:33;;;;;;;0.10;0.10;;;14.70;99.90;;;;;;5071499;28;20055;-68
2022/07/14 05:06:59;;;;;;;0.10;0.10;;;14.80;99.90;;;;;;5068384;28;20046;-69
2022/07/14 05:09:25;;;;;;;0.10;0.10;;;14.80;99.90;;;;;;5052780;28;20044;-69
2022/07/14 05:11:51;;;;;;;0.10;0.10;;;14.80;99.90;;;;;;5081715;28;20044;-68
2022/07/14 05:14:17;;;;;;;0.00;0.00;;;14.90;99.90;;;;;;5089697;28;20051;-68
2022/07/14 05:16:44;;;;;;;0.00;0.00;;;15.10;99.90;;;;;;5077707;28;20044;-69
2022/07/14 05:19:11;;;;;;;0.88;0.88;;;15.10;99.90;;;;;;5052174;28;20113;-69
2022/07/14 05:21:37;;;;;;;0.20;0.20;;;15.20;99.90;;;;;;5060634;28;20044;-68
2022/07/14 05:24:03;;;;;;;0.00;0.00;;;15.20;99.90;;;;;;5072686;28;20051;-69
2022/07/14 05:26:28;;;;;;;0.20;0.20;;;15.20;99.90;;;;;;5061189;28;20040;-68
2022/07/14 05:28:54;;;;;;;0.03;0.03;;;15.30;99.90;;;;;;5090180;28;20044;-69
2022/07/14 05:31:20;;;;;;;0.03;0.03;;;15.40;99.90;;;;;;5061991;28;20044;-69
2022/07/14 05:33:46;;;;;;;0.10;0.10;;;15.50;99.90;;;;;;5090929;28;20040;-69
2022/07/14 05:36:11;;;;;;;0.00;0.00;;;15.60;99.90;;;;;;5081719;28;20063;-69
2022/07/14 05:38:37;;;;;;;0.00;0.00;;;15.70;99.90;;;;;;5090654;28;20052;-68
2022/07/14 05:41:03;;;;;;;0.10;0.10;;;15.70;99.90;;;;;;5075828;28;20040;-69
2022/07/14 05:43:31;;;;;;;0.10;0.10;;;15.70;99.90;;;;;;5047809;28;20052;-69
2022/07/14 05:46:08;;;;;;;0.10;0.10;;;15.70;99.90;;;;;;5064127;28;20044;-69
2022/07/14 05:48:35;;;;;;;0.17;0.17;;;15.80;99.90;;;;;;5088461;28;20048;-69
2022/07/14 05:51:14;;;;;;;0.10;0.10;;;15.90;99.90;;;;;;5056579;28;20059;-69
2022/07/14 05:53:41;;;;;;;0.10;0.10;;;16.00;99.90;;;;;;5049877;28;20388;-69
2022/07/14 05:56:08;;;;;;;0.10;0.10;;;16.10;99.90;;;;;;5049479;28;20045;-69
2022/07/14 05:58:35;;;;;;;0.10;0.10;;;16.10;99.90;;;;;;5064937;28;20067;-69
2022/07/14 06:01:01;;;;;;;0.10;0.10;;;16.20;99.90;;;;;;5082553;28;20561;-69
2022/07/14 06:03:27;;;;;;;0.10;0.10;;;16.30;99.90;;;;;;5068916;28;20063;-68
2022/07/14 06:05:52;;;;;;;0.00;0.00;;;16.30;99.90;;;;;;5067546;28;20694;-69
2022/07/14 06:08:18;;;;;;;0.10;0.10;;;16.40;99.90;;;;;;5089903;28;20036;-69
2022/07/14 06:10:44;;;;;;;0.00;0.00;;;16.50;99.90;;;;;;5087065;28;20043;-69
2022/07/14 06:13:09;;;;;;;0.10;0.10;;;16.50;99.90;;;;;;5062694;28;20506;-69
2022/07/14 06:15:35;;;;;;;0.03;0.03;;;16.60;99.90;;;;;;5082368;28;20373;-69
2022/07/14 06:18:01;;;;;;;1.10;1.05;;;16.60;99.90;;;;;;5050908;28;20094;-69
2022/07/14 06:20:26;;;;;;;0.10;0.10;;;16.70;99.90;;;;;;5065266;28;20045;-69
2022/07/14 06:22:52;;;;;;;0.00;0.00;;;16.70;99.90;;;;;;5088709;28;20056;-69
2022/07/14 06:25:18;;;;;;;0.00;0.00;;;16.80;99.90;;;;;;5085252;28;20051;-69
2022/07/14 06:27:43;;;;;;;0.10;0.10;;;16.80;99.90;;;;;;5051205;28;20052;-69
2022/07/14 06:30:10;;;;;;;0.03;0.03;;;16.80;99.90;;;;;;5072770;28;20032;-69
2022/07/14 06:32:39;;;;;;;0.00;0.00;;;16.90;99.90;;;;;;5043553;28;20068;-69
2022/07/14 06:35:09;;;;;;;0.15;0.15;;;16.90;99.90;;;;;;5069249;28;20131;-69
2022/07/14 06:37:35;;;;;;;0.00;0.00;;;16.90;99.90;;;;;;5072897;28;20565;-69
2022/07/14 06:40:05;;;;;;;0.08;0.08;;;17.00;99.90;;;;;;5070719;28;20055;-69
2022/07/14 06:42:32;;;;;;;0.00;0.00;;;17.10;99.90;;;;;;5070815;28;20044;-69
2022/07/14 06:44:58;;;;;;;0.00;0.00;;;17.10;99.90;;;;;;5067892;28;20321;-69
2022/07/14 06:47:24;;;;;;;0.00;0.00;;;17.20;99.90;;;;;;5054893;28;20040;-69
2022/07/14 06:49:49;;;;;;;0.00;0.00;;;17.30;99.90;;;;;;5084364;28;20044;-69
2022/07/14 06:52:15;;;;;;;0.00;0.00;;;17.40;99.90;;;;;;5067094;28;20052;-69
2022/07/14 06:54:40;;;;;;;0.00;0.00;;;17.50;99.90;;;;;;5049719;28;20081;-69
2022/07/14 06:57:06;;;;;;;1.10;0.75;;;17.70;99.90;;;;;;5047414;28;20052;-69
2022/07/14 06:59:32;;;;;;;0.03;0.03;;;17.70;99.90;;;;;;5048192;28;20041;-69
2022/07/14 07:01:57;;;;;;;0.00;0.00;;;17.70;99.90;;;;;;5048575;28;20045;-69
2022/07/14 07:04:24;;;;;;;0.00;0.00;;;17.70;99.90;;;;;;5029223;28;20564;-69
2022/07/14 07:06:50;;;;;;;0.10;0.10;;;17.70;99.90;;;;;;5042616;28;20674;-69
2022/07/14 07:09:19;;;;;;;0.00;0.00;;;17.70;99.90;;;;;;5047973;28;20041;-70
2022/07/14 07:11:45;;;;;;;0.00;0.00;;;17.70;99.90;;;;;;5048388;28;20128;-69
2022/07/14 07:14:12;;;;;;;0.10;0.10;;;17.80;99.90;;;;;;5059599;28;20514;-69
2022/07/14 07:16:38;;;;;;;0.00;0.00;;;17.90;99.90;;;;;;5049784;28;20139;-70
2022/07/14 07:19:04;;;;;;;0.00;0.00;;;17.90;99.90;;;;;;5047504;28;20127;-69
2022/07/14 07:21:29;;;;;;;0.00;0.00;;;18.00;99.90;;;;;;5051783;28;20044;-69
2022/07/14 07:23:55;;;;;;;0.00;0.00;;;18.00;99.90;;;;;;5041869;28;20056;-69
2022/07/14 07:26:24;;;;;;;0.03;0.03;;;18.10;99.90;;;;;;5056739;28;20045;-69
2022/07/14 07:28:54;;;;;;;0.00;0.00;;;18.20;99.90;;;;;;5063743;28;20590;-69
2022/07/14 07:31:20;;;;;;;0.00;0.00;;;18.30;99.90;;;;;;5087113;28;20031;-69
2022/07/14 07:33:46;;;;;;;0.00;0.00;;;18.30;99.90;;;;;;5068637;28;20081;-69
2022/07/14 07:36:12;;;;;;;0.10;0.10;;;18.40;99.90;;;;;;5069329;28;20048;-70
2022/07/14 07:38:38;;;;;;;0.10;0.10;;;18.40;99.90;;;;;;5061218;28;20033;-69
2022/07/14 07:41:03;;;;;;;0.00;0.00;;;18.50;99.90;;;;;;5065281;28;20102;-70
2022/07/14 07:43:29;;;;;;;0.10;0.10;;;18.70;99.90;;;;;;5050192;28;20044;-70
2022/07/14 07:45:55;;;;;;;0.00;0.00;;;18.70;99.90;;;;;;5067123;28;20377;-69
2022/07/14 07:48:20;;;;;;;1.55;1.17;;;18.70;99.90;;;;;;5066224;28;20076;-69
2022/07/14 07:50:46;;;;;;;0.00;0.00;;;18.70;99.90;;;;;;5057406;28;20113;-69
2022/07/14 07:53:12;;;;;;;0.00;0.00;;;18.70;99.90;;;;;;5070440;28;20036;-69
2022/07/14 07:55:38;;;;;;;0.10;0.10;;;18.70;99.90;;;;;;5076885;28;20052;-69
2022/07/14 07:58:05;;;;;;;0.00;0.00;;;18.80;99.90;;;;;;5087226;28;20084;-69
2022/07/14 08:00:31;;;;;;;0.10;0.10;;;18.80;99.90;;;;;;5057680;28;20131;-69
2022/07/14 08:02:57;;;;;;;0.00;0.00;;;18.80;99.90;;;;;;5050940;28;1023814;-69
2022/07/14 08:05:26;;;;;;;0.00;0.00;;;18.80;99.90;;;;;;5063261;28;20591;-69
2022/07/14 08:07:52;;;;;;;0.00;0.00;;;18.80;99.90;;;;;;5069817;28;20527;-69
2022/07/14 08:10:18;;;;;;;0.00;0.00;;;18.90;99.90;;;;;;5067970;28;20040;-69
2022/07/14 08:12:45;;;;;;;0.10;0.10;;;18.90;99.90;;;;;;5070791;28;20044;-69
2022/07/14 08:15:11;;;;;;;0.00;0.00;;;19.00;99.90;;;;;;5090502;28;20059;-69
2022/07/14 08:17:37;;;;;;;0.10;0.10;;;19.10;99.90;;;;;;5070532;28;20392;-69
2022/07/14 08:20:05;;;;;;;0.00;0.00;;;19.10;99.90;;;;;;5083154;28;20044;-70
2022/07/14 08:22:30;;;;;;;0.00;0.00;;;19.20;99.90;;;;;;5085830;28;20040;-69
2022/07/14 08:24:57;;;;;;;0.10;0.10;;;19.20;99.90;;;;;;5081635;28;20519;-70
2022/07/14 08:27:22;;;;;;;0.45;0.43;;;19.20;99.90;;;;;;5077744;28;20078;-69
2022/07/14 08:29:49;;;;;;;0.00;0.00;;;19.20;99.90;;;;;;5077445;28;20555;-68
2022/07/14 08:32:15;;;;;;;0.30;0.30;;;19.20;99.90;;;;;;5052875;28;20056;-69
2022/07/14 08:34:40;;;;;;;0.00;0.00;;;19.20;99.90;;;;;;5066570;28;20044;-69
2022/07/14 08:37:06;;;;;;;0.00;0.00;;;19.20;99.90;;;;;;5048837;28;20076;-69
2022/07/14 08:39:32;;;;;;;0.05;0.05;;;19.20;99.90;;;;;;5067192;28;20515;-70
2022/07/14 08:42:02;;;;;;;0.00;0.00;;;19.30;99.90;;;;;;5046923;28;20037;-70
2022/07/14 08:44:28;;;;;;;0.00;0.00;;;19.50;99.90;;;;;;5060437;28;20135;-70
2022/07/14 08:46:55;;;;;;;0.00;0.00;;;19.50;99.90;;;;;;5090536;28;20047;-70
2022/07/14 08:49:22;;;;;;;0.00;0.00;;;19.60;99.90;;;;;;5089624;28;20048;-69
2022/07/14 08:51:49;;;;;;;0.00;0.00;;;19.70;99.90;;;;;;5056268;28;20056;-70
2022/07/14 08:54:16;;;;;;;0.10;0.10;;;19.70;99.90;;;;;;5073098;28;20443;-69
2022/07/14 08:56:42;;;;;;;0.00;0.00;;;19.70;99.90;;;;;;5061333;28;20045;-69
2022/07/14 08:59:08;;;;;;;0.00;0.00;;;19.70;99.90;;;;;;5054423;28;20048;-70
2022/07/14 09:01:35;;;;;;;0.00;0.00;;;19.70;99.90;;;;;;5090992;28;20040;-70
2022/07/14 09:04:01;;;;;;;0.10;0.10;;;19.70;99.90;;;;;;5090417;28;20576;-70
2022/07/14 09:06:52;;;;;;;0.00;0.00;;;19.70;99.90;;;;;;5077435;28;20075;-69
2022/07/14 09:09:34;;;;;;;0.00;0.00;;;19.70;99.90;;;;;;5070373;28;20052;-70
2022/07/14 09:12:06;;;;;;;0.10;0.10;;;19.70;99.90;;;;;;5078807;28;20395;-70
2022/07/14 09:17:25;;;;;;;0.00;0.00;;;19.90;99.90;;;;;;5070458;28;20133;-70
2022/07/14 09:20:11;;;;;;;0.10;0.10;;;19.90;99.90;;;;;;5089813;28;20052;-70
2022/07/14 09:22:38;;;;;;;0.10;0.10;;;19.90;99.90;;;;;;5070435;28;20040;-70
2022/07/14 09:25:12;;;;;;;22.83;0.40;;;20.00;99.90;;;;;;5068524;28;20480;-70
2022/07/14 09:27:38;;;;;;;;;;;20.10;99.90;;;;;;5071400;28;20656;-69
2022/07/14 09:30:05;;;;;;;0.10;0.10;;;20.20;99.90;;;;;;5089902;28;19920;-69
2022/07/14 09:32:56;;;;;;;0.00;0.00;;;20.20;99.90;;;;;;5086406;28;20124;-70
2022/07/14 09:35:27;;;;;;;0.00;0.00;;;20.20;99.90;;;;;;5047322;28;20059;-70
2022/07/14 09:37:54;;;;;;;0.00;0.00;;;20.10;99.90;;;;;;5050601;28;20037;-70
2022/07/14 09:40:29;;;;;;;0.10;0.10;;;20.10;99.90;;;;;;5031119;28;20049;-70
2022/07/14 09:42:59;;;;;;;0.00;0.00;;;20.10;99.90;;;;;;5073936;28;20127;-70
2022/07/14 09:45:36;;;;;;;0.00;0.00;;;20.10;99.90;;;;;;5090234;28;20036;-70
2022/07/14 09:48:23;;;;;;;0.00;0.00;;;20.10;99.90;;;;;;5069379;28;20122;-69
2022/07/14 09:50:57;;;;;;;0.00;0.00;;;20.30;99.90;;;;;;5080369;28;20059;-69
2022/07/14 09:53:27;;;;;;;0.00;0.00;;;20.30;99.90;;;;;;5069486;28;20044;-70
2022/07/14 09:55:56;;;;;;;0.00;0.00;;;20.40;99.90;;;;;;5063176;28;20090;-69
2022/07/14 09:58:24;;;;;;;0.75;0.68;;;20.40;99.90;;;;;;5071563;28;20605;-70
2022/07/14 10:00:54;;;;;;;0.00;0.00;;;20.50;99.90;;;;;;5089037;28;20047;-69
2022/07/14 10:03:20;;;;;;;0.00;0.00;;;20.60;99.90;;;;;;5050045;28;20056;-70
2022/07/14 10:05:47;;;;;;;0.00;0.00;;;20.60;99.90;;;;;;5069468;28;20045;-70
2022/07/14 10:08:13;;;;;;;0.00;0.00;;;20.70;99.90;;;;;;5070143;28;20568;-70
2022/07/14 10:10:39;;;;;;;0.00;0.00;;;20.70;99.90;;;;;;5070529;28;20044;-70
2022/07/14 10:13:05;;;;;;;0.00;0.00;;;20.80;99.90;;;;;;5088347;28;20040;-70
2022/07/14 10:15:31;;;;;;;0.13;0.13;;;20.70;99.90;;;;;;5085784;28;20101;-70
2022/07/14 10:18:00;;;;;;;0.00;0.00;;;20.70;99.90;;;;;;5051547;28;20040;-70
2022/07/14 10:20:27;;;;;;;0.55;0.47;;;20.70;99.90;;;;;;5067444;28;20062;-70
2022/07/14 10:22:55;;;;;;;0.05;0.05;;;20.60;99.90;;;;;;5041312;28;20064;-70
2022/07/14 10:25:21;;;;;;;0.00;0.00;;;20.50;99.90;;;;;;5068577;28;20458;-70
2022/07/14 10:27:48;;;;;;;0.00;0.00;;;20.50;99.90;;;;;;5069034;28;20041;-70
2022/07/14 10:30:15;;;;;;;0.00;0.00;;;20.40;99.90;;;;;;5074716;28;20121;-69
2022/07/14 10:32:57;;;;;;;0.00;0.00;;;20.40;99.90;;;;;;5072134;28;20054;-69
2022/07/14 10:35:44;;;;;;;0.08;0.08;;;20.40;99.90;;;;;;5087552;28;20086;-69
2022/07/14 10:38:29;;;;;;;0.00;0.00;;;20.30;99.90;;;;;;5074615;28;20067;-69
2022/07/14 10:41:17;;;;;;;0.00;0.00;;;20.20;99.90;;;;;;5068221;28;20049;-69
2022/07/14 10:44:15;;;;;;;0.55;0.55;;;20.20;99.90;;;;;;5081640;28;20941;-68
2022/07/14 10:46:42;;;;;;;0.00;0.00;;;20.20;99.90;;;;;;5088901;28;20055;-69
2022/07/14 10:49:10;;;;;;;0.17;0.17;;;20.10;99.90;;;;;;5062443;28;20043;-69
2022/07/14 10:51:50;;;;;;;0.00;0.00;;;20.10;99.90;;;;;;5087941;28;20130;-68
2022/07/14 10:54:31;;;;;;;0.00;0.00;;;20.20;99.90;;;;;;5070754;28;20078;-69
2022/07/14 10:57:17;;;;;;;0.22;0.22;;;20.20;99.90;;;;;;5050584;28;20055;-69
2022/07/14 10:59:44;;;;;;;0.05;0.05;;;20.40;99.90;;;;;;5082489;28;20483;-69
2022/07/14 11:02:12;;;;;;;0.13;0.13;;;20.60;99.90;;;;;;5050837;28;20080;-68
2022/07/14 11:04:57;;;;;;;0.00;0.00;;;21.00;99.90;;;;;;5080789;28;20044;-69
2022/07/14 11:07:35;;;;;;;0.00;0.00;;;21.20;99.90;;;;;;5070371;28;20149;-70
2022/07/14 11:10:04;;;;;;;16.35;0.35;;;21.50;99.90;;;;;;5088568;28;20083;-70
2022/07/14 11:12:30;;;;;;;0.00;0.00;;;21.80;99.90;;;;;;5087538;28;20054;-70
2022/07/14 11:14:56;;;;;;;0.00;0.00;;;21.80;99.90;;;;;;5087726;28;20103;-70
2022/07/14 11:17:39;;;;;;;0.00;0.00;;;22.10;99.90;;;;;;5069395;28;20840;-69
2022/07/14 11:20:08;;;;;;;0.00;0.00;;;22.20;99.90;;;;;;5047398;28;20451;-69
2022/07/14 11:22:34;;;;;;;0.10;0.10;;;22.00;99.90;;;;;;5052097;28;20528;-70
2022/07/14 11:25:01;;;;;;;0.00;0.00;;;22.30;99.90;;;;;;5087999;28;20079;-70
2022/07/14 11:27:32;;;;;;;0.00;0.00;;;22.50;99.90;;;;;;5087633;28;20077;-70
2022/07/14 11:30:15;;;;;;;0.00;0.00;;;22.80;99.90;;;;;;5058527;28;20037;-70
2022/07/14 11:32:42;;;;;;;0.00;0.00;;;22.90;99.90;;;;;;5068030;28;20058;-70
2022/07/14 11:38:00;;;;;;;0.20;0.20;;;22.70;99.90;;;;;;5088357;28;20048;-70
2022/07/14 11:40:49;;;;;;;0.57;0.55;;;22.60;99.90;;;;;;5073685;28;20052;-69
2022/07/14 11:43:29;;;;;;;0.00;0.00;;;22.40;99.90;;;;;;5069197;28;20908;-69
2022/07/14 11:45:58;;;;;;;1.05;0.52;;;22.70;99.90;;;;;;5050349;28;20056;-70
2022/07/14 11:48:33;;;;;;;0.00;0.00;;;22.60;99.90;;;;;;5057105;28;20543;-69
2022/07/14 11:51:07;;;;;;;0.00;0.00;;;22.30;99.90;;;;;;5071243;28;20483;-70
2022/07/14 11:53:34;;;;;;;0.00;0.00;;;22.60;99.90;;;;;;5092144;28;20080;-69
2022/07/14 11:56:04;;;;;;;0.00;0.00;;;23.00;99.90;;;;;;5089980;28;20119;-69
2022/07/14 11:58:31;;;;;;;0.00;0.00;;;23.10;99.90;;;;;;5090927;28;20126;-70
2022/07/14 12:00:59;;;;;;;0.00;0.00;;;23.00;99.90;;;;;;5081875;28;20048;-70
2022/07/14 12:03:25;;;;;;;0.00;0.00;;;23.40;99.90;;;;;;5071575;28;20451;-70
2022/07/14 12:05:56;;;;;;;0.00;0.00;;;23.50;99.90;;;;;;5054081;28;20040;-70
2022/07/14 12:08:42;;;;;;;0.00;0.00;;;23.90;99.90;;;;;;5070536;28;20084;-70
2022/07/14 12:11:11;;;;;;;0.00;0.00;;;23.90;99.90;;;;;;5077999;28;20154;-69
2022/07/14 12:13:46;;;;;;;0.10;0.10;;;24.00;99.90;;;;;;5084378;28;20075;-70
2022/07/14 12:16:12;;;;;;;0.00;0.00;;;24.50;99.90;;;;;;5062300;28;20079;-70
2022/07/14 12:18:38;;;;;;;0.00;0.00;;;24.60;99.90;;;;;;5071327;28;20251;-70
2022/07/14 12:21:03;;;;;;;0.00;0.00;;;24.30;99.90;;;;;;5068525;28;20033;-70
2022/07/14 12:23:29;;;;;;;0.00;0.00;;;24.00;99.90;;;;;;5082044;28;20085;-70
2022/07/14 12:26:00;;;;;;;0.10;0.10;;;24.10;99.90;;;;;;5091970;28;20048;-70
2022/07/14 12:28:27;;;;;;;0.20;0.20;;;24.40;99.90;;;;;;5090867;28;20070;-69
2022/07/14 12:30:58;;;;;;;0.13;0.03;;;24.50;99.90;;;;;;5066732;28;20102;-69
2022/07/14 12:33:36;;;;;;;0.00;0.00;;;24.80;99.60;;;;;;5071009;28;20041;-70
2022/07/14 12:36:03;;;;;;;0.00;0.00;;;24.80;99.40;;;;;;5071315;28;20036;-69
2022/07/14 12:38:32;;;;;;;0.00;0.00;;;24.70;99.80;;;;;;5070297;28;20395;-69
2022/07/14 12:41:02;;;;;;;0.00;0.00;;;24.80;99.50;;;;;;5091581;28;20039;-69
2022/07/14 12:43:31;;;;;;;0.13;0.13;;;24.90;99.30;;;;;;5032791;28;20138;-70
2022/07/14 12:46:02;;;;;;;0.00;0.00;;;25.20;99.90;;;;;;5040123;28;20044;-69
2022/07/14 12:48:33;;;;;;;0.00;0.00;;;25.10;99.20;;;;;;5091084;28;20051;-69
2022/07/14 12:51:21;;;;;;;0.00;0.00;;;25.30;98.90;;;;;;5090878;28;20032;-69
2022/07/14 12:53:57;;;;;;;0.00;0.00;;;25.50;99.40;;;;;;5063244;28;20388;-69
2022/07/14 12:56:24;;;;;;;0.00;0.00;;;25.40;99.00;;;;;;5070899;28;20079;-69
2022/07/14 12:58:50;;;;;;;0.00;0.00;;;25.50;99.40;;;;;;5052477;28;20052;-69
2022/07/14 13:01:15;;;;;;;0.00;0.00;;;25.80;99.10;;;;;;5069646;28;20046;-69
2022/07/14 13:03:41;;;;;;;0.00;0.00;;;25.90;97.90;;;;;;5088078;28;20044;-69
2022/07/14 13:06:06;;;;;;;0.00;0.00;;;25.80;98.70;;;;;;5090536;28;20047;-68